createdAt,value
2022-09-18T00:01:28.694Z,93692.69
2022-09-18T00:03:59.471Z,93708.16
2022-09-18T00:06:30.075Z,93706.13
2022-09-18T00:08:59.761Z,93695.03
2022-09-18T00:11:30.406Z,93694.66
2022-09-18T00:13:57.410Z,93694.44
2022-09-18T00:16:25.760Z,93710.78
2022-09-18T00:18:53.619Z,93715.56
2022-09-18T00:21:26.863Z,93691.53
2022-09-18T00:23:59.093Z,93709.94
2022-09-18T00:26:27.278Z,93709.34
2022-09-18T00:28:58.860Z,93692.75
2022-09-18T00:31:30.153Z,93693.22
2022-09-18T00:33:59.810Z,93714.72
2022-09-18T00:36:27.423Z,93715.44
2022-09-18T00:38:55.974Z,93725.31
2022-09-18T00:41:29.253Z,93733.59
2022-09-18T00:44:34.297Z,93738.22
2022-09-18T00:47:14.409Z,93739.38
2022-09-18T00:49:58.894Z,93764.31
2022-09-18T00:52:30.626Z,93790.28
2022-09-18T00:55:08.607Z,93778.38
2022-09-18T00:57:41.417Z,93767.66
2022-09-18T01:00:12.704Z,93796.03
2022-09-18T01:02:41.571Z,93817.31
2022-09-18T01:05:09.569Z,93846.44
2022-09-18T01:08:01.037Z,93866.94
2022-09-18T01:10:35.412Z,93869.13
2022-09-18T01:13:21.672Z,93882.31
2022-09-18T01:15:59.975Z,93886.03
2022-09-18T01:18:51.328Z,93877.66
2022-09-18T01:21:35.957Z,93908.34
2022-09-18T01:24:48.574Z,93937.22
2022-09-18T01:27:30.422Z,93924.25
2022-09-18T01:30:05.288Z,93931.09
2022-09-18T01:32:41.596Z,93913.91
2022-09-18T01:35:40.602Z,93922.25
2022-09-18T01:38:13.498Z,93942.03
2022-09-18T01:40:56.709Z,93964.38
2022-09-18T01:43:29.068Z,93974.69
2022-09-18T01:46:00.500Z,93968.34
2022-09-18T01:48:36.734Z,93967.78
2022-09-18T01:51:20.466Z,94001.09
2022-09-18T01:53:53.827Z,94032.28
2022-09-18T01:56:36.629Z,93997.75
2022-09-18T01:59:11.820Z,94021.63
2022-09-18T02:01:49.698Z,94039.16
2022-09-18T02:04:22.141Z,94058.84
2022-09-18T02:07:00.937Z,94067.59
2022-09-18T02:09:28.967Z,94061.66
2022-09-18T02:11:59.052Z,94075.97
2022-09-18T02:14:42.101Z,94077.75
2022-09-18T02:17:36.928Z,94083.41
2022-09-18T02:20:11.002Z,94102.41
2022-09-18T02:22:39.133Z,94121.16
2022-09-18T02:25:08.811Z,94119.09
2022-09-18T02:27:38.322Z,94144.97
2022-09-18T02:30:07.445Z,94115.34
2022-09-18T02:32:40.274Z,94141.81
2022-09-18T02:35:09.424Z,94161.09
2022-09-18T02:37:54.772Z,94170.47
2022-09-18T02:40:34.708Z,94172.03
2022-09-18T02:43:40.787Z,94175.69
2022-09-18T02:46:38.724Z,94198.03
2022-09-18T02:49:24.717Z,94203.75
2022-09-18T02:51:58.138Z,94206.88
2022-09-18T02:54:46.982Z,94214.44
2022-09-18T02:57:26.891Z,94206.84
2022-09-18T02:59:59.342Z,94231.09
2022-09-18T03:02:26.927Z,94225.44
2022-09-18T03:04:54.633Z,94215.28
2022-09-18T03:07:39.129Z,94231.44
2022-09-18T03:10:07.339Z,94239.63
2022-09-18T03:12:35.434Z,94245.47
2022-09-18T03:15:04.842Z,94223.88
2022-09-18T03:17:31.891Z,94246.84
2022-09-18T03:19:58.892Z,94255.69
2022-09-18T03:22:25.851Z,94260.09
2022-09-18T03:24:52.795Z,94269.34
2022-09-18T03:27:20.741Z,94252.34
2022-09-18T03:29:49.760Z,94277.97
2022-09-18T03:32:19.126Z,94273.75
2022-09-18T03:34:48.971Z,94264.94
2022-09-18T03:37:16.571Z,94260.78
2022-09-18T03:39:45.150Z,94297.50
2022-09-18T03:42:13.913Z,94269.16
2022-09-18T03:44:40.951Z,94272.41
2022-09-18T03:47:18.007Z,94260.53
2022-09-18T03:49:47.165Z,94248.34
2022-09-18T03:52:14.487Z,94268.78
2022-09-18T03:54:52.552Z,94257.47
2022-09-18T03:57:39.659Z,94253.13
2022-09-18T04:00:33.929Z,94300.16
2022-09-18T04:03:06.719Z,94296.44
2022-09-18T04:05:52.511Z,94310.09
2022-09-18T04:08:45.776Z,94314.88
2022-09-18T04:11:23.703Z,94322.72
2022-09-18T04:13:50.628Z,94342.59
2022-09-18T04:16:17.981Z,94315.75
2022-09-18T04:18:45.077Z,94339.88
2022-09-18T04:21:12.049Z,94333.78
2022-09-18T04:23:38.965Z,94307.66
2022-09-18T04:26:09.554Z,94360.19
2022-09-18T04:28:41.946Z,94353.88
2022-09-18T04:31:12.035Z,94380.03
2022-09-18T04:33:38.988Z,94394.72
2022-09-18T04:36:08.396Z,94404.09
2022-09-18T04:38:38.312Z,94402.16
2022-09-18T04:41:05.460Z,94388.63
2022-09-18T04:43:32.559Z,94420.78
2022-09-18T04:46:00.318Z,94431.94
2022-09-18T04:48:27.301Z,94438.28
2022-09-18T04:50:55.618Z,94433.53
2022-09-18T04:53:22.926Z,94438.72
2022-09-18T04:55:49.771Z,94417.84
2022-09-18T04:58:19.073Z,94427.66
2022-09-18T05:00:51.228Z,94452.84
2022-09-18T05:03:19.532Z,94432.84
2022-09-18T05:05:49.993Z,94437.13
2022-09-18T05:08:17.470Z,94462.88
2022-09-18T05:10:44.599Z,94441.75
2022-09-18T05:13:12.252Z,94497.28
2022-09-18T05:15:47.036Z,94478.91
2022-09-18T05:18:14.540Z,94481.63
2022-09-18T05:20:42.034Z,94487.69
2022-09-18T05:23:11.213Z,94494.38
2022-09-18T05:25:38.191Z,94489.97
2022-09-18T05:28:05.725Z,94499.22
2022-09-18T05:30:39.631Z,94505.53
2022-09-18T05:33:11.212Z,94495.31
2022-09-18T05:35:40.399Z,94526.41
2022-09-18T05:38:07.942Z,94522.81
2022-09-18T05:40:37.474Z,94522.47
2022-09-18T05:43:05.993Z,94525.53
2022-09-18T05:45:34.464Z,94519.50
2022-09-18T05:48:06.342Z,94507.00
2022-09-18T05:50:38.107Z,94494.31
2022-09-18T05:53:08.800Z,94534.66
2022-09-18T05:55:59.908Z,94548.41
2022-09-18T05:58:30.077Z,94527.75
2022-09-18T06:00:58.863Z,94529.00
2022-09-18T06:03:33.006Z,94526.88
2022-09-18T06:06:04.257Z,94532.63
2022-09-18T06:08:31.254Z,94541.22
2022-09-18T06:11:01.560Z,94532.75
2022-09-18T06:13:32.205Z,94532.84
2022-09-18T06:16:01.748Z,94540.97
2022-09-18T06:18:48.705Z,94521.09
2022-09-18T06:21:15.621Z,94557.22
2022-09-18T06:23:43.741Z,94543.22
2022-09-18T06:26:17.962Z,94563.09
2022-09-18T06:28:52.109Z,94558.38
2022-09-18T06:31:19.768Z,94579.34
2022-09-18T06:34:04.810Z,94560.59
2022-09-18T06:36:31.753Z,94579.34
2022-09-18T06:39:05.210Z,94610.09
2022-09-18T06:41:32.809Z,94594.94
2022-09-18T06:44:03.900Z,94590.22
2022-09-18T06:46:33.136Z,94600.91
2022-09-18T06:49:12.910Z,94606.91
2022-09-18T06:51:46.142Z,94616.16
2022-09-18T06:54:17.333Z,94607.19
2022-09-18T06:56:46.264Z,94617.69
2022-09-18T06:59:16.562Z,94610.91
2022-09-18T07:01:44.138Z,94601.59
2022-09-18T07:04:16.598Z,94619.00
2022-09-18T07:06:48.270Z,94629.88
2022-09-18T07:09:15.721Z,94619.66
2022-09-18T07:12:03.344Z,94626.53
2022-09-18T07:14:51.820Z,94633.22
2022-09-18T07:17:22.208Z,94634.66
2022-09-18T07:19:55.797Z,94643.34
2022-09-18T07:22:29.737Z,94627.53
2022-09-18T07:24:56.621Z,94631.97
2022-09-18T07:27:23.319Z,94629.69
2022-09-18T07:29:52.211Z,94625.03
2022-09-18T07:32:22.311Z,94615.13
2022-09-18T07:34:49.206Z,94624.28
2022-09-18T07:37:23.935Z,94619.94
2022-09-18T07:40:03.948Z,94625.47
2022-09-18T07:42:49.630Z,94629.13
2022-09-18T07:45:16.815Z,94615.72
2022-09-18T07:47:43.579Z,94628.97
2022-09-18T07:50:15.976Z,94637.06
2022-09-18T07:52:55.915Z,94631.50
2022-09-18T07:55:28.435Z,94628.34
2022-09-18T07:58:00.552Z,94614.28
2022-09-18T08:01:00.566Z,94638.59
2022-09-18T08:03:28.052Z,94628.31
2022-09-18T08:06:17.709Z,94635.66
2022-09-18T08:09:05.162Z,94644.34
2022-09-18T08:11:54.191Z,94641.28
2022-09-18T08:14:29.912Z,94648.88
2022-09-18T08:17:15.494Z,94643.97
2022-09-18T08:20:00.853Z,94658.31
2022-09-18T08:22:44.723Z,94645.09
2022-09-18T08:25:12.662Z,94662.00
2022-09-18T08:27:42.625Z,94654.97
2022-09-18T08:30:11.804Z,94651.28
2022-09-18T08:32:39.969Z,94646.78
2022-09-18T08:35:09.520Z,94683.94
2022-09-18T08:37:36.352Z,94670.34
2022-09-18T08:40:31.130Z,94671.03
2022-09-18T08:43:17.469Z,94670.97
2022-09-18T08:46:00.286Z,94660.94
2022-09-18T08:48:35.748Z,94669.19
2022-09-18T08:51:25.749Z,94666.44
2022-09-18T08:54:01.635Z,94683.88
2022-09-18T08:56:47.850Z,94656.47
2022-09-18T09:00:14.420Z,94672.81
2022-09-18T09:03:07.731Z,94690.09
2022-09-18T09:05:46.971Z,94664.75
2022-09-18T09:08:52.440Z,94668.00
2022-09-18T09:11:39.772Z,94674.78
2022-09-18T09:14:55.642Z,94659.34
2022-09-18T09:17:29.794Z,94670.50
2022-09-18T09:20:23.332Z,94677.38
2022-09-18T09:23:14.369Z,94702.94
2022-09-18T09:25:59.978Z,94680.13
2022-09-18T09:29:06.879Z,94660.91
2022-09-18T09:32:01.021Z,94666.47
2022-09-18T09:35:17.881Z,94679.09
2022-09-18T09:38:07.049Z,94684.91
2022-09-18T09:40:43.132Z,94696.34
2022-09-18T09:43:29.448Z,94688.91
2022-09-18T09:46:03.054Z,94690.47
2022-09-18T09:48:45.070Z,94670.63
2022-09-18T09:51:32.268Z,94682.81
2022-09-18T09:54:02.265Z,94708.25
2022-09-18T09:56:36.985Z,94711.41
2022-09-18T09:59:32.991Z,94671.56
2022-09-18T10:02:21.628Z,94705.63
2022-09-18T10:05:14.704Z,94715.19
2022-09-18T10:08:12.052Z,94725.06
2022-09-18T10:11:00.979Z,94721.88
2022-09-18T10:13:31.595Z,94738.56
2022-09-18T10:16:06.731Z,94700.56
2022-09-18T10:18:39.492Z,94728.09
2022-09-18T10:21:11.267Z,94730.75
2022-09-18T10:23:41.365Z,94751.81
2022-09-18T10:26:21.884Z,94743.88
2022-09-18T10:28:48.839Z,94743.53
2022-09-18T10:31:17.064Z,94747.28
2022-09-18T10:33:51.351Z,94750.72
2022-09-18T10:36:22.747Z,94744.03
2022-09-18T10:38:50.552Z,94734.16
2022-09-18T10:41:39.257Z,94752.44
2022-09-18T10:44:15.034Z,94772.34
2022-09-18T10:47:02.589Z,94731.09
2022-09-18T10:49:34.990Z,94764.31
2022-09-18T10:52:21.245Z,94756.38
2022-09-18T10:55:25.834Z,94770.44
2022-09-18T10:57:56.936Z,94788.97
2022-09-18T11:00:24.631Z,94769.00
2022-09-18T11:03:01.392Z,94755.03
2022-09-18T11:05:37.000Z,94773.03
2022-09-18T11:08:14.857Z,94781.78
2022-09-18T11:10:48.773Z,94758.75
2022-09-18T11:13:24.145Z,94765.69
2022-09-18T11:15:55.139Z,94787.75
2022-09-18T11:18:24.941Z,94781.69
2022-09-18T11:20:54.095Z,94790.94
2022-09-18T11:23:35.181Z,94788.13
2022-09-18T11:26:20.795Z,94810.03
2022-09-18T11:29:02.494Z,94795.19
2022-09-18T11:31:46.716Z,94804.72
2022-09-18T11:34:32.116Z,94803.00
2022-09-18T11:37:02.840Z,94796.69
2022-09-18T11:39:38.741Z,94784.88
2022-09-18T11:42:12.737Z,94822.72
2022-09-18T11:44:42.648Z,94813.81
2022-09-18T11:47:54.440Z,94852.13
2022-09-18T11:50:26.359Z,94796.50
2022-09-18T11:52:54.815Z,94811.97
2022-09-18T11:55:44.662Z,94795.44
2022-09-18T11:58:20.256Z,94800.69
2022-09-18T12:00:48.445Z,94797.03
2022-09-18T12:03:20.920Z,94782.31
2022-09-18T12:06:08.709Z,94807.50
2022-09-18T12:09:03.141Z,94834.34
2022-09-18T12:11:55.134Z,94778.66
2022-09-18T12:14:37.831Z,94814.06
2022-09-18T12:17:17.695Z,94816.44
2022-09-18T12:19:50.327Z,94834.81
2022-09-18T12:22:29.492Z,94825.31
2022-09-18T12:25:18.274Z,94801.22
2022-09-18T12:28:37.690Z,94822.47
2022-09-18T12:31:24.269Z,94791.78
2022-09-18T12:34:09.699Z,94838.50
2022-09-18T12:36:45.419Z,94837.44
2022-09-18T12:39:53.727Z,94816.97
2022-09-18T12:42:59.176Z,94818.81
2022-09-18T12:45:47.133Z,94824.06
2022-09-18T12:48:49.469Z,94831.88
2022-09-18T12:51:43.327Z,94831.13
2022-09-18T12:54:48.391Z,94823.25
2022-09-18T12:57:40.731Z,94810.63
2022-09-18T13:00:15.326Z,94832.63
2022-09-18T13:02:54.489Z,94828.66
2022-09-18T13:06:13.629Z,94825.69
2022-09-18T13:08:58.354Z,94825.13
2022-09-18T13:11:44.955Z,94830.47
2022-09-18T13:14:24.187Z,94824.56
2022-09-18T13:17:02.516Z,94828.13
2022-09-18T13:19:53.861Z,94827.84
2022-09-18T13:22:22.894Z,94838.41
2022-09-18T13:24:53.376Z,94830.00
2022-09-18T13:27:22.605Z,94833.72
2022-09-18T13:29:52.362Z,94831.09
2022-09-18T13:32:35.181Z,94831.34
2022-09-18T13:35:15.232Z,94837.03
2022-09-18T13:37:43.095Z,94831.53
2022-09-18T13:40:55.738Z,94826.47
2022-09-18T13:43:28.391Z,94845.56
2022-09-18T13:46:05.994Z,94833.13
2022-09-18T13:48:40.275Z,94822.53
2022-09-18T13:51:24.105Z,94836.22
2022-09-18T13:54:18.717Z,94837.97
2022-09-18T13:57:10.837Z,94848.84
2022-09-18T13:59:58.406Z,94853.06
2022-09-18T14:02:39.346Z,94825.69
2022-09-18T14:05:35.542Z,94825.66
2022-09-18T14:08:21.570Z,94850.06
2022-09-18T14:11:05.308Z,94856.22
2022-09-18T14:13:41.472Z,94846.75
2022-09-18T14:16:13.706Z,94852.47
2022-09-18T14:19:00.678Z,94868.22
2022-09-18T14:21:42.378Z,94850.41
2022-09-18T14:24:50.192Z,94868.38
2022-09-18T14:27:28.984Z,94874.97
2022-09-18T14:29:59.202Z,94868.47
2022-09-18T14:32:27.664Z,94861.66
2022-09-18T14:35:23.513Z,94866.50
2022-09-18T14:37:50.938Z,94871.59
2022-09-18T14:40:21.841Z,94868.09
2022-09-18T14:42:49.787Z,94878.81
2022-09-18T14:45:27.276Z,94869.06
2022-09-18T14:47:55.402Z,94876.25
2022-09-18T14:50:28.271Z,94881.56
2022-09-18T14:52:57.014Z,94876.63
2022-09-18T14:55:29.918Z,94875.22
2022-09-18T14:58:04.341Z,94882.31
2022-09-18T15:00:33.622Z,94885.72
2022-09-18T15:03:25.638Z,94887.50
2022-09-18T15:05:55.453Z,94891.25
2022-09-18T15:08:26.679Z,94887.34
2022-09-18T15:10:57.997Z,94888.88
2022-09-18T15:13:25.571Z,94890.13
2022-09-18T15:16:01.756Z,94889.94
2022-09-18T15:18:30.517Z,94887.91
2022-09-18T15:21:01.838Z,94893.69
2022-09-18T15:23:38.362Z,94870.91
2022-09-18T15:26:12.590Z,94890.38
2022-09-18T15:28:41.848Z,94888.53
2022-09-18T15:31:12.457Z,94886.78
2022-09-18T15:33:54.560Z,94889.59
2022-09-18T15:36:28.229Z,94889.41
2022-09-18T15:38:56.833Z,94878.28
2022-09-18T15:41:43.555Z,94891.53
2022-09-18T15:44:30.147Z,94879.88
2022-09-18T15:46:57.224Z,94894.88
2022-09-18T15:49:34.648Z,94883.88
2022-09-18T15:52:01.461Z,94891.22
2022-09-18T15:54:28.631Z,94905.47
2022-09-18T15:56:58.006Z,94895.66
2022-09-18T15:59:40.617Z,94905.06
2022-09-18T16:02:34.764Z,94893.16
2022-09-18T16:05:09.922Z,94900.28
2022-09-18T16:07:39.497Z,94900.28
2022-09-18T16:10:35.231Z,94897.47
2022-09-18T16:13:04.553Z,94904.75
2022-09-18T16:15:33.925Z,94897.41
2022-09-18T16:18:25.535Z,94904.66
2022-09-18T16:20:53.809Z,94906.81
2022-09-18T16:23:22.176Z,94900.22
2022-09-18T16:26:01.394Z,94903.22
2022-09-18T16:28:30.349Z,94902.00
2022-09-18T16:30:57.408Z,94904.09
2022-09-18T16:33:30.022Z,94898.25
2022-09-18T16:36:25.969Z,94919.00
2022-09-18T16:38:52.748Z,94911.59
2022-09-18T16:41:19.452Z,94907.81
2022-09-18T16:43:46.195Z,94920.78
2022-09-18T16:46:14.478Z,94912.72
2022-09-18T16:48:41.693Z,94928.84
2022-09-18T16:51:08.395Z,94919.03
2022-09-18T16:53:38.262Z,94939.91
2022-09-18T16:56:08.470Z,94939.53
2022-09-18T16:58:37.636Z,94932.25
2022-09-18T17:01:05.298Z,94923.06
2022-09-18T17:03:32.732Z,94940.28
2022-09-18T17:06:02.032Z,94938.06
2022-09-18T17:08:30.404Z,94944.84
2022-09-18T17:10:57.347Z,94951.00
2022-09-18T17:13:24.152Z,94958.28
2022-09-18T17:15:51.020Z,94958.97
2022-09-18T17:18:18.027Z,94953.22
2022-09-18T17:20:46.057Z,94942.94
2022-09-18T17:23:13.229Z,94973.28
2022-09-18T17:25:40.507Z,94969.47
2022-09-18T17:28:07.739Z,94977.63
2022-09-18T17:30:34.665Z,94972.66
2022-09-18T17:33:02.160Z,94974.94
2022-09-18T17:35:28.958Z,94977.66
2022-09-18T17:37:55.695Z,94980.81
2022-09-18T17:40:22.636Z,94998.94
2022-09-18T17:42:49.349Z,94994.16
2022-09-18T17:45:16.201Z,94994.69
2022-09-18T17:47:42.984Z,94991.63
2022-09-18T17:50:09.820Z,95014.47
2022-09-18T17:52:36.908Z,95007.53
2022-09-18T17:55:03.775Z,95007.41
2022-09-18T17:57:32.097Z,95014.09
2022-09-18T17:59:59.167Z,95014.78
2022-09-18T18:02:25.984Z,95024.00
2022-09-18T18:04:52.779Z,95018.44
2022-09-18T18:07:19.448Z,95022.09
2022-09-18T18:09:46.251Z,95028.50
2022-09-18T18:12:13.552Z,95027.59
2022-09-18T18:14:40.384Z,95032.66
2022-09-18T18:17:08.663Z,95036.72
2022-09-18T18:19:35.361Z,95033.97
2022-09-18T18:22:02.082Z,95033.81
2022-09-18T18:24:31.073Z,95042.94
2022-09-18T18:26:57.947Z,95042.75
2022-09-18T18:29:24.887Z,95052.06
2022-09-18T18:31:52.488Z,95044.97
2022-09-18T18:34:22.332Z,95043.59
2022-09-18T18:36:50.384Z,95039.78
2022-09-18T18:39:19.942Z,95039.78
2022-09-18T18:41:47.556Z,95042.97
2022-09-18T18:44:16.071Z,95051.03
2022-09-18T18:46:43.172Z,95044.38
2022-09-18T18:49:15.050Z,95048.81
2022-09-18T18:51:45.214Z,95053.28
2022-09-18T18:54:13.986Z,95057.75
2022-09-18T18:56:41.486Z,95063.78
2022-09-18T18:59:11.950Z,95060.88
2022-09-18T19:01:39.558Z,95057.38
2022-09-18T19:04:09.479Z,95047.31
2022-09-18T19:06:38.994Z,95047.94
2022-09-18T19:09:10.891Z,95057.34
2022-09-18T19:11:45.484Z,95045.03
2022-09-18T19:14:15.601Z,95051.44
2022-09-18T19:16:43.028Z,95053.28
2022-09-18T19:19:11.733Z,95054.31
2022-09-18T19:21:38.869Z,95049.94
2022-09-18T19:24:08.150Z,95040.66
2022-09-18T19:26:36.224Z,95049.25
2022-09-18T19:29:09.042Z,95037.56
2022-09-18T19:31:38.387Z,95047.72
2022-09-18T19:34:06.588Z,95036.16
2022-09-18T19:36:34.023Z,95044.53
2022-09-18T19:39:06.639Z,95044.16
2022-09-18T19:41:55.352Z,95050.91
2022-09-18T19:44:22.994Z,95057.72
2022-09-18T19:46:50.725Z,95054.94
2022-09-18T19:49:22.009Z,95060.94
2022-09-18T19:51:49.521Z,95053.38
2022-09-18T19:54:16.507Z,95047.03
2022-09-18T19:56:48.169Z,95056.19
2022-09-18T19:59:16.748Z,95060.59
2022-09-18T20:01:44.343Z,95052.22
2022-09-18T20:04:11.361Z,95062.19
2022-09-18T20:06:41.017Z,95062.19
2022-09-18T20:09:07.971Z,95053.59
2022-09-18T20:11:35.516Z,95063.75
2022-09-18T20:14:02.337Z,95047.06
2022-09-18T20:16:30.223Z,95063.16
2022-09-18T20:18:57.021Z,95068.94
2022-09-18T20:21:24.250Z,95048.66
2022-09-18T20:23:57.151Z,95061.75
2022-09-18T20:26:24.831Z,95065.75
2022-09-18T20:28:52.114Z,95059.19
2022-09-18T20:31:20.654Z,95068.97
2022-09-18T20:33:47.758Z,95062.59
2022-09-18T20:36:14.649Z,95072.34
2022-09-18T20:38:43.240Z,95049.03
2022-09-18T20:41:16.330Z,95062.97
2022-09-18T20:43:45.187Z,95068.53
2022-09-18T20:46:15.927Z,95066.53
2022-09-18T20:48:58.174Z,95050.56
2022-09-18T20:51:27.656Z,95054.56
2022-09-18T20:53:57.756Z,95076.84
2022-09-18T20:56:27.177Z,95064.47
2022-09-18T20:58:57.586Z,95053.31
2022-09-18T21:01:28.084Z,95073.66
2022-09-18T21:03:57.910Z,95070.66
2022-09-18T21:06:28.555Z,95066.47
2022-09-18T21:08:56.802Z,95073.25
2022-09-18T21:11:27.952Z,95066.06
2022-09-18T21:13:57.528Z,95063.63
2022-09-18T21:16:26.679Z,95071.19
2022-09-18T21:18:57.201Z,95057.22
2022-09-18T21:21:26.134Z,95075.06
2022-09-18T21:23:56.422Z,95075.06
2022-09-18T21:26:26.442Z,95080.88
2022-09-18T21:29:07.326Z,95071.91
2022-09-18T21:31:42.817Z,95081.44
2022-09-18T21:34:24.416Z,95087.34
2022-09-18T21:36:57.898Z,95085.31
2022-09-18T21:39:28.242Z,95078.53
2022-09-18T21:41:57.066Z,95088.63
2022-09-18T21:44:29.695Z,95094.03
2022-09-18T21:47:00.097Z,95095.03
2022-09-18T21:49:29.088Z,95079.69
2022-09-18T21:51:58.327Z,95079.69
2022-09-18T21:54:25.359Z,95078.91
2022-09-18T21:56:53.045Z,95082.63
2022-09-18T21:59:22.248Z,95079.22
2022-09-18T22:01:50.309Z,95072.44
2022-09-18T22:04:17.475Z,95054.47
2022-09-18T22:06:46.015Z,95075.97
2022-09-18T22:09:16.347Z,95075.56
2022-09-18T22:11:45.907Z,95076.34
2022-09-18T22:14:17.136Z,95062.88
2022-09-18T22:16:45.783Z,95052.88
2022-09-18T22:19:13.487Z,95069.44
2022-09-18T22:21:43.446Z,95063.28
2022-09-18T22:24:14.160Z,95058.28
2022-09-18T22:26:44.291Z,95060.00
2022-09-18T22:29:18.579Z,95065.16
2022-09-18T22:31:48.739Z,95060.13
2022-09-18T22:34:17.939Z,95056.50
2022-09-18T22:36:47.851Z,95064.25
2022-09-18T22:39:16.279Z,95046.25
2022-09-18T22:41:44.049Z,95061.00
2022-09-18T22:44:12.061Z,95064.97
2022-09-18T22:46:41.433Z,95058.19
2022-09-18T22:49:09.555Z,95075.81
2022-09-18T22:51:36.288Z,95070.66
2022-09-18T22:54:07.717Z,95077.25
2022-09-18T22:56:41.059Z,95076.06
2022-09-18T22:59:08.380Z,95075.66
2022-09-18T23:01:39.280Z,95077.63
2022-09-18T23:04:09.950Z,95085.59
2022-09-18T23:06:37.254Z,95086.38
2022-09-18T23:09:06.335Z,95080.03
2022-09-18T23:11:34.918Z,95088.19
2022-09-18T23:14:04.850Z,95096.09
2022-09-18T23:16:34.171Z,95083.19
2022-09-18T23:19:03.824Z,95086.56
2022-09-18T23:21:32.772Z,95088.69
2022-09-18T23:24:05.935Z,95082.41
2022-09-18T23:26:41.746Z,95089.63
2022-09-18T23:29:12.820Z,95080.06
2022-09-18T23:31:43.133Z,95075.28
2022-09-18T23:34:15.965Z,95070.84
2022-09-18T23:36:48.958Z,95079.19
2022-09-18T23:39:23.952Z,95067.66
2022-09-18T23:41:51.513Z,95070.94
2022-09-18T23:44:21.551Z,95067.22
2022-09-18T23:46:49.410Z,95052.00
2022-09-18T23:49:20.903Z,95058.06
2022-09-18T23:51:47.698Z,95041.41
2022-09-18T23:54:26.680Z,95063.00
2022-09-18T23:56:53.964Z,95051.38
2022-09-18T23:59:23.231Z,95059.47
